sensor_id;sensor_type;location;lat;lon;timestamp;pressure;altitude;pressure_sealevel;temperature;humidity
30021;BME280;16861;52.294;7.760;2023-07-24T00:00:54;98731.88;;;21.03;69.58
30021;BME280;16861;52.294;7.760;2023-07-24T00:03:21;98735.56;;;21.02;69.52
30021;BME280;16861;52.294;7.760;2023-07-24T00:05:47;98736.41;;;21.02;69.54
30021;BME280;16861;52.294;7.760;2023-07-24T00:08:13;98732.88;;;21.02;69.54
30021;BME280;16861;52.294;7.760;2023-07-24T00:10:40;98732.88;;;21.02;69.59
30021;BME280;16861;52.294;7.760;2023-07-24T00:13:06;98738.22;;;21.02;69.48
30021;BME280;16861;52.294;7.760;2023-07-24T00:15:33;98737.38;;;21.01;69.40
30021;BME280;16861;52.294;7.760;2023-07-24T00:17:59;98730.22;;;21.02;69.63
30021;BME280;16861;52.294;7.760;2023-07-24T00:20:26;98730.22;;;21.02;69.55
30021;BME280;16861;52.294;7.760;2023-07-24T00:22:52;98729.38;;;21.01;69.72
30021;BME280;16861;52.294;7.760;2023-07-24T00:25:19;98734.53;;;21.03;69.62
30021;BME280;16861;52.294;7.760;2023-07-24T00:27:45;98725.69;;;21.02;69.59
30021;BME280;16861;52.294;7.760;2023-07-24T00:30:11;98716.00;;;21.01;69.59
30021;BME280;16861;52.294;7.760;2023-07-24T00:32:38;98714.34;;;21.00;69.56
30021;BME280;16861;52.294;7.760;2023-07-24T00:35:05;98715.53;;;20.98;69.58
30021;BME280;16861;52.294;7.760;2023-07-24T00:37:31;98710.19;;;20.98;69.50
30021;BME280;16861;52.294;7.760;2023-07-24T00:39:58;98712.22;;;20.95;69.69
30021;BME280;16861;52.294;7.760;2023-07-24T00:42:24;98716.09;;;20.93;69.72
30021;BME280;16861;52.294;7.760;2023-07-24T00:44:51;98709.22;;;20.90;69.80
30021;BME280;16861;52.294;7.760;2023-07-24T00:47:17;98712.91;;;20.89;70.06
30021;BME280;16861;52.294;7.760;2023-07-24T00:49:44;98713.09;;;20.88;70.28
30021;BME280;16861;52.294;7.760;2023-07-24T00:52:11;98708.75;;;20.87;70.43
30021;BME280;16861;52.294;7.760;2023-07-24T00:54:38;98712.28;;;20.87;70.49
30021;BME280;16861;52.294;7.760;2023-07-24T00:57:05;98713.94;;;20.88;70.43
30021;BME280;16861;52.294;7.760;2023-07-24T00:59:32;98708.59;;;20.88;70.43
30021;BME280;16861;52.294;7.760;2023-07-24T01:01:59;98700.56;;;20.88;70.75
30021;BME280;16861;52.294;7.760;2023-07-24T01:04:25;98702.22;;;20.89;70.51
30021;BME280;16861;52.294;7.760;2023-07-24T01:06:52;98692.19;;;20.91;70.35
30021;BME280;16861;52.294;7.760;2023-07-24T01:09:18;98701.22;;;20.90;70.62
30021;BME280;16861;52.294;7.760;2023-07-24T01:14:53;98690.50;;;20.90;71.00
30021;BME280;16861;52.294;7.760;2023-07-24T01:17:24;98689.53;;;20.91;70.97
30021;BME280;16861;52.294;7.760;2023-07-24T01:19:55;98691.16;;;20.92;71.00
30021;BME280;16861;52.294;7.760;2023-07-24T01:27:29;98682.13;;;20.93;70.94
30021;BME280;16861;52.294;7.760;2023-07-24T01:29:56;98687.47;;;20.93;70.76
30021;BME280;16861;52.294;7.760;2023-07-24T01:32:22;98685.66;;;20.94;70.85
30021;BME280;16861;52.294;7.760;2023-07-24T01:34:52;98682.97;;;20.94;71.11
30021;BME280;16861;52.294;7.760;2023-07-24T01:37:20;98680.13;;;20.95;71.28
30021;BME280;16861;52.294;7.760;2023-07-24T01:39:47;98677.22;;;20.97;71.01
30021;BME280;16861;52.294;7.760;2023-07-24T01:42:14;98662.03;;;20.98;71.07
30021;BME280;16861;52.294;7.760;2023-07-24T01:44:41;98675.22;;;20.99;70.93
30021;BME280;16861;52.294;7.760;2023-07-24T01:47:07;98671.72;;;20.99;71.00
30021;BME280;16861;52.294;7.760;2023-07-24T01:49:34;98661.00;;;20.99;71.01
30021;BME280;16861;52.294;7.760;2023-07-24T01:52:00;98662.69;;;21.00;71.09
30021;BME280;16861;52.294;7.760;2023-07-24T01:54:26;98660.81;;;21.00;71.21
30021;BME280;16861;52.294;7.760;2023-07-24T01:56:53;98655.47;;;21.00;71.02
30021;BME280;16861;52.294;7.760;2023-07-24T01:59:19;98656.31;;;21.01;71.23
30021;BME280;16861;52.294;7.760;2023-07-24T02:01:46;98645.63;;;21.01;71.03
30021;BME280;16861;52.294;7.760;2023-07-24T02:04:12;98656.31;;;21.01;70.90
30021;BME280;16861;52.294;7.760;2023-07-24T02:06:38;98648.94;;;21.03;71.00
30021;BME280;16861;52.294;7.760;2023-07-24T02:09:05;98640.91;;;21.03;70.87
30021;BME280;16861;52.294;7.760;2023-07-24T02:11:31;98644.41;;;21.03;71.12
30021;BME280;16861;52.294;7.760;2023-07-24T02:13:58;98646.25;;;21.03;70.90
30021;BME280;16861;52.294;7.760;2023-07-24T02:16:27;98645.25;;;21.04;70.95
30021;BME280;16861;52.294;7.760;2023-07-24T02:18:54;98634.56;;;21.04;71.01
30021;BME280;16861;52.294;7.760;2023-07-24T02:21:20;98636.41;;;21.03;70.99
30021;BME280;16861;52.294;7.760;2023-07-24T02:23:47;98628.38;;;21.03;70.94
30021;BME280;16861;52.294;7.760;2023-07-24T02:26:13;98629.38;;;21.02;70.97
30021;BME280;16861;52.294;7.760;2023-07-24T02:28:39;98611.66;;;21.01;70.87
30021;BME280;16861;52.294;7.760;2023-07-24T02:31:06;98620.69;;;21.00;70.87
30021;BME280;16861;52.294;7.760;2023-07-24T02:33:32;98622.56;;;21.00;70.97
30021;BME280;16861;52.294;7.760;2023-07-24T02:36:00;98618.22;;;20.99;71.10
30021;BME280;16861;52.294;7.760;2023-07-24T02:38:27;98609.38;;;20.98;70.94
30021;BME280;16861;52.294;7.760;2023-07-24T02:40:53;98614.53;;;21.00;71.05
30021;BME280;16861;52.294;7.760;2023-07-24T02:43:20;98621.72;;;20.99;70.99
30021;BME280;16861;52.294;7.760;2023-07-24T02:45:46;98619.03;;;20.99;70.99
30021;BME280;16861;52.294;7.760;2023-07-24T02:48:13;98626.22;;;20.99;70.89
30021;BME280;16861;52.294;7.760;2023-07-24T02:50:39;98615.53;;;20.99;71.15
30021;BME280;16861;52.294;7.760;2023-07-24T02:53:05;98612.84;;;20.99;70.97
30021;BME280;16861;52.294;7.760;2023-07-24T02:55:32;98616.56;;;20.98;70.91
30021;BME280;16861;52.294;7.760;2023-07-24T02:57:58;98615.72;;;20.97;71.07
30021;BME280;16861;52.294;7.760;2023-07-24T03:00:25;98608.72;;;20.96;70.75
30021;BME280;16861;52.294;7.760;2023-07-24T03:02:54;98615.06;;;20.95;71.48
30021;BME280;16861;52.294;7.760;2023-07-24T03:05:21;98614.22;;;20.94;71.12
30021;BME280;16861;52.294;7.760;2023-07-24T03:07:47;98603.53;;;20.94;71.16
30021;BME280;16861;52.294;7.760;2023-07-24T03:10:14;98611.56;;;20.94;71.22
30021;BME280;16861;52.294;7.760;2023-07-24T03:12:40;98607.91;;;20.95;71.19
30021;BME280;16861;52.294;7.760;2023-07-24T03:15:07;98612.59;;;20.93;71.03
30021;BME280;16861;52.294;7.760;2023-07-24T03:20:18;98607.41;;;20.92;71.19
30021;BME280;16861;52.294;7.760;2023-07-24T03:22:45;98617.28;;;20.91;71.09
30021;BME280;16861;52.294;7.760;2023-07-24T03:25:13;98610.94;;;20.92;71.49
30021;BME280;16861;52.294;7.760;2023-07-24T03:27:39;98610.25;;;20.90;71.06
30021;BME280;16861;52.294;7.760;2023-07-24T03:30:06;98606.59;;;20.91;71.12
30021;BME280;16861;52.294;7.760;2023-07-24T03:32:38;98612.94;;;20.90;71.44
30021;BME280;16861;52.294;7.760;2023-07-24T03:35:05;98610.25;;;20.90;71.40
30021;BME280;16861;52.294;7.760;2023-07-24T03:37:35;98606.78;;;20.90;71.84
30021;BME280;16861;52.294;7.760;2023-07-24T03:40:02;98599.56;;;20.90;71.28
30021;BME280;16861;52.294;7.760;2023-07-24T03:42:30;98597.91;;;20.89;71.39
30021;BME280;16861;52.294;7.760;2023-07-24T03:44:57;98589.88;;;20.89;71.34
30021;BME280;16861;52.294;7.760;2023-07-24T03:47:24;98576.50;;;20.89;71.32
30021;BME280;16861;52.294;7.760;2023-07-24T03:49:51;98578.38;;;20.89;71.46
30021;BME280;16861;52.294;7.760;2023-07-24T03:52:17;98579.38;;;20.88;71.28
30021;BME280;16861;52.294;7.760;2023-07-24T03:54:44;98582.88;;;20.88;71.45
30021;BME280;16861;52.294;7.760;2023-07-24T03:57:11;98571.50;;;20.86;71.18
30021;BME280;16861;52.294;7.760;2023-07-24T03:59:38;98565.50;;;20.84;71.25
30021;BME280;16861;52.294;7.760;2023-07-24T04:02:05;98572.91;;;20.82;71.33
30021;BME280;16861;52.294;7.760;2023-07-24T04:04:35;98566.88;;;20.80;71.46
30021;BME280;16861;52.294;7.760;2023-07-24T04:07:02;98553.88;;;20.77;71.33
30021;BME280;16861;52.294;7.760;2023-07-24T04:09:29;98559.41;;;20.75;71.30
30021;BME280;16861;52.294;7.760;2023-07-24T04:11:56;98557.94;;;20.73;71.64
30021;BME280;16861;52.294;7.760;2023-07-24T04:14:22;98543.94;;;20.70;72.00
30021;BME280;16861;52.294;7.760;2023-07-24T04:16:49;98549.28;;;20.70;71.84
30021;BME280;16861;52.294;7.760;2023-07-24T04:19:16;98552.13;;;20.69;71.78
30021;BME280;16861;52.294;7.760;2023-07-24T04:21:42;98536.09;;;20.69;72.04
30021;BME280;16861;52.294;7.760;2023-07-24T04:24:09;98532.78;;;20.67;71.97
30021;BME280;16861;52.294;7.760;2023-07-24T04:26:35;98535.63;;;20.65;71.93
30021;BME280;16861;52.294;7.760;2023-07-24T04:29:03;98541.78;;;20.66;72.07
30021;BME280;16861;52.294;7.760;2023-07-24T04:31:30;98528.59;;;20.64;72.31
30021;BME280;16861;52.294;7.760;2023-07-24T04:33:56;98538.31;;;20.65;72.45
30021;BME280;16861;52.294;7.760;2023-07-24T04:36:23;98535.63;;;20.65;72.66
30021;BME280;16861;52.294;7.760;2023-07-24T04:38:49;98527.44;;;20.67;72.60
30021;BME280;16861;52.294;7.760;2023-07-24T04:41:16;98537.09;;;20.68;72.36
30021;BME280;16861;52.294;7.760;2023-07-24T04:43:43;98541.44;;;20.69;72.57
30021;BME280;16861;52.294;7.760;2023-07-24T04:46:09;98536.94;;;20.69;72.45
30021;BME280;16861;52.294;7.760;2023-07-24T04:48:36;98539.59;;;20.69;72.36
30021;BME280;16861;52.294;7.760;2023-07-24T04:51:03;98544.94;;;20.69;72.29
30021;BME280;16861;52.294;7.760;2023-07-24T04:53:29;98547.63;;;20.69;72.40
30021;BME280;16861;52.294;7.760;2023-07-24T04:55:56;98540.59;;;20.68;72.12
30021;BME280;16861;52.294;7.760;2023-07-24T04:58:23;98536.09;;;20.69;72.52
30021;BME280;16861;52.294;7.760;2023-07-24T05:00:50;98526.59;;;20.66;72.30
30021;BME280;16861;52.294;7.760;2023-07-24T05:03:17;98530.28;;;20.65;72.22
30021;BME280;16861;52.294;7.760;2023-07-24T05:05:48;98533.94;;;20.64;72.76
30021;BME280;16861;52.294;7.760;2023-07-24T05:08:15;98526.78;;;20.65;72.41
30021;BME280;16861;52.294;7.760;2023-07-24T05:10:41;98526.94;;;20.63;72.41
30021;BME280;16861;52.294;7.760;2023-07-24T05:13:08;98518.31;;;20.61;72.42
30021;BME280;16861;52.294;7.760;2023-07-24T05:15:38;98516.66;;;20.60;72.58
30021;BME280;16861;52.294;7.760;2023-07-24T05:18:05;98509.63;;;20.59;72.48
30021;BME280;16861;52.294;7.760;2023-07-24T05:20:31;98502.63;;;20.58;72.58
30021;BME280;16861;52.294;7.760;2023-07-24T05:22:58;98498.28;;;20.57;72.51
30021;BME280;16861;52.294;7.760;2023-07-24T05:25:25;98496.63;;;20.56;72.55
30021;BME280;16861;52.294;7.760;2023-07-24T05:27:51;98507.34;;;20.56;72.73
30021;BME280;16861;52.294;7.760;2023-07-24T05:30:18;98513.66;;;20.55;72.63
30021;BME280;16861;52.294;7.760;2023-07-24T05:32:44;98522.72;;;20.54;72.84
30021;BME280;16861;52.294;7.760;2023-07-24T05:35:11;98528.22;;;20.52;72.62
30021;BME280;16861;52.294;7.760;2023-07-24T05:37:38;98525.75;;;20.51;72.93
30021;BME280;16861;52.294;7.760;2023-07-24T05:40:05;98520.41;;;20.51;73.08
30021;BME280;16861;52.294;7.760;2023-07-24T05:42:32;98536.63;;;20.49;73.08
30021;BME280;16861;52.294;7.760;2023-07-24T05:44:58;98529.59;;;20.48;72.94
30021;BME280;16861;52.294;7.760;2023-07-24T05:47:25;98530.63;;;20.47;73.12
30021;BME280;16861;52.294;7.760;2023-07-24T05:49:52;98529.78;;;20.47;73.25
30021;BME280;16861;52.294;7.760;2023-07-24T05:52:19;98530.81;;;20.46;73.23
30021;BME280;16861;52.294;7.760;2023-07-24T05:54:45;98531.66;;;20.46;73.45
30021;BME280;16861;52.294;7.760;2023-07-24T05:57:12;98525.47;;;20.46;73.66
30021;BME280;16861;52.294;7.760;2023-07-24T05:59:39;98518.28;;;20.46;73.68
30021;BME280;16861;52.294;7.760;2023-07-24T06:02:05;98521.59;;;20.48;73.55
30021;BME280;16861;52.294;7.760;2023-07-24T06:04:33;98531.28;;;20.49;73.61
30021;BME280;16861;52.294;7.760;2023-07-24T06:07:00;98523.06;;;20.51;73.65
30021;BME280;16861;52.294;7.760;2023-07-24T06:09:27;98526.59;;;20.51;73.57
30021;BME280;16861;52.294;7.760;2023-07-24T06:11:53;98527.41;;;20.52;73.63
30021;BME280;16861;52.294;7.760;2023-07-24T06:14:20;98528.91;;;20.54;73.56
30021;BME280;16861;52.294;7.760;2023-07-24T06:16:46;98524.38;;;20.55;73.66
30021;BME280;16861;52.294;7.760;2023-07-24T06:19:13;98530.56;;;20.55;73.57
30021;BME280;16861;52.294;7.760;2023-07-24T06:21:40;98525.84;;;20.57;73.53
30021;BME280;16861;52.294;7.760;2023-07-24T06:24:07;98530.38;;;20.57;73.50
30021;BME280;16861;52.294;7.760;2023-07-24T06:26:39;98534.69;;;20.58;73.63
30021;BME280;16861;52.294;7.760;2023-07-24T06:29:05;98536.34;;;20.59;73.55
30021;BME280;16861;52.294;7.760;2023-07-24T06:31:32;98537.19;;;20.60;73.60
30021;BME280;16861;52.294;7.760;2023-07-24T06:33:59;98537.19;;;20.60;73.37
30021;BME280;16861;52.294;7.760;2023-07-24T06:36:25;98536.34;;;20.59;73.27
30021;BME280;16861;52.294;7.760;2023-07-24T06:38:53;98542.91;;;20.56;73.34
30021;BME280;16861;52.294;7.760;2023-07-24T06:41:20;98552.13;;;20.54;73.33
30021;BME280;16861;52.294;7.760;2023-07-24T06:43:49;98559.69;;;20.50;73.20
30021;BME280;16861;52.294;7.760;2023-07-24T06:46:16;98555.88;;;20.44;72.64
30021;BME280;16861;52.294;7.760;2023-07-24T06:48:43;98563.78;;;20.38;72.52
30021;BME280;16861;52.294;7.760;2023-07-24T06:51:10;98555.00;;;20.29;72.64
30021;BME280;16861;52.294;7.760;2023-07-24T06:53:36;98555.91;;;20.21;72.66
30021;BME280;16861;52.294;7.760;2023-07-24T06:56:03;98558.66;;;20.13;73.03
30021;BME280;16861;52.294;7.760;2023-07-24T06:58:31;98558.72;;;20.04;73.49
30021;BME280;16861;52.294;7.760;2023-07-24T07:00:57;98564.44;;;20.01;73.79
30021;BME280;16861;52.294;7.760;2023-07-24T07:03:24;98562.13;;;19.98;73.82
30021;BME280;16861;52.294;7.760;2023-07-24T07:05:51;98561.41;;;19.96;74.41
30021;BME280;16861;52.294;7.760;2023-07-24T07:08:17;98554.59;;;19.93;74.83
30021;BME280;16861;52.294;7.760;2023-07-24T07:10:46;98562.44;;;19.95;74.99
30021;BME280;16861;52.294;7.760;2023-07-24T07:13:14;98567.59;;;19.97;75.10
30021;BME280;16861;52.294;7.760;2023-07-24T07:15:41;98562.13;;;19.98;75.33
30021;BME280;16861;52.294;7.760;2023-07-24T07:18:07;98555.59;;;20.01;75.27
30021;BME280;16861;52.294;7.760;2023-07-24T07:20:34;98553.53;;;20.03;75.87
30021;BME280;16861;52.294;7.760;2023-07-24T07:23:00;98563.53;;;20.09;75.85
30021;BME280;16861;52.294;7.760;2023-07-24T07:25:27;98543.47;;;20.13;76.01
30021;BME280;16861;52.294;7.760;2023-07-24T07:27:54;98544.78;;;20.17;75.97
30021;BME280;16861;52.294;7.760;2023-07-24T07:30:20;98546.88;;;20.22;76.04
30021;BME280;16861;52.294;7.760;2023-07-24T07:32:47;98548.00;;;20.28;75.70
30021;BME280;16861;52.294;7.760;2023-07-24T07:35:18;98556.31;;;20.33;75.77
30021;BME280;16861;52.294;7.760;2023-07-24T07:37:45;98549.78;;;20.36;75.63
30021;BME280;16861;52.294;7.760;2023-07-24T07:40:12;98555.44;;;20.41;75.45
30021;BME280;16861;52.294;7.760;2023-07-24T07:42:38;98561.41;;;20.43;75.55
30021;BME280;16861;52.294;7.760;2023-07-24T07:45:08;98564.75;;;20.45;75.21
30021;BME280;16861;52.294;7.760;2023-07-24T07:47:37;98558.38;;;20.46;75.41
30021;BME280;16861;52.294;7.760;2023-07-24T07:50:04;98553.50;;;20.50;75.62
30021;BME280;16861;52.294;7.760;2023-07-24T07:52:30;98551.09;;;20.55;75.83
30021;BME280;16861;52.294;7.760;2023-07-24T07:54:57;98553.22;;;20.60;76.16
30021;BME280;16861;52.294;7.760;2023-07-24T07:57:25;98547.97;;;20.66;76.39
30021;BME280;16861;52.294;7.760;2023-07-24T07:59:52;98545.22;;;20.75;76.32
30021;BME280;16861;52.294;7.760;2023-07-24T08:02:18;98546.97;;;20.82;76.12
30021;BME280;16861;52.294;7.760;2023-07-24T08:04:45;98556.13;;;20.88;75.80
30021;BME280;16861;52.294;7.760;2023-07-24T08:07:12;98558.28;;;20.93;75.50
30021;BME280;16861;52.294;7.760;2023-07-24T08:09:39;98556.69;;;20.99;75.46
30021;BME280;16861;52.294;7.760;2023-07-24T08:12:08;98553.66;;;21.02;75.31
30021;BME280;16861;52.294;7.760;2023-07-24T08:14:35;98556.59;;;21.07;75.05
30021;BME280;16861;52.294;7.760;2023-07-24T08:17:02;98557.88;;;21.11;74.79
30021;BME280;16861;52.294;7.760;2023-07-24T08:19:29;98567.19;;;21.15;74.80
30021;BME280;16861;52.294;7.760;2023-07-24T08:21:56;98557.78;;;21.19;74.42
30021;BME280;16861;52.294;7.760;2023-07-24T08:24:23;98555.75;;;21.21;74.28
30021;BME280;16861;52.294;7.760;2023-07-24T08:26:50;98541.34;;;21.22;73.49
30021;BME280;16861;52.294;7.760;2023-07-24T08:29:16;98550.19;;;21.23;73.07
30021;BME280;16861;52.294;7.760;2023-07-24T08:31:43;98545.06;;;21.21;72.79
30021;BME280;16861;52.294;7.760;2023-07-24T08:34:10;98546.06;;;21.20;73.37
30021;BME280;16861;52.294;7.760;2023-07-24T08:36:36;98552.88;;;21.23;74.10
30021;BME280;16861;52.294;7.760;2023-07-24T08:39:04;98547.16;;;21.26;74.59
30021;BME280;16861;52.294;7.760;2023-07-24T08:41:31;98542.91;;;21.32;74.97
30021;BME280;16861;52.294;7.760;2023-07-24T08:44:01;98544.63;;;21.40;75.23
30021;BME280;16861;52.294;7.760;2023-07-24T08:46:31;98549.06;;;21.47;75.31
30021;BME280;16861;52.294;7.760;2023-07-24T08:49:01;98548.19;;;21.62;75.36
30021;BME280;16861;52.294;7.760;2023-07-24T08:51:34;98541.88;;;21.70;73.54
30021;BME280;16861;52.294;7.760;2023-07-24T08:54:16;98545.13;;;21.80;73.56
30021;BME280;16861;52.294;7.760;2023-07-24T08:56:44;98540.19;;;21.84;73.69
30021;BME280;16861;52.294;7.760;2023-07-24T08:59:16;98538.78;;;21.88;73.18
30021;BME280;16861;52.294;7.760;2023-07-24T09:01:44;98543.78;;;21.91;73.26
30021;BME280;16861;52.294;7.760;2023-07-24T09:04:11;98535.34;;;21.94;73.21
30021;BME280;16861;52.294;7.760;2023-07-24T09:06:37;98536.63;;;21.98;73.39
30021;BME280;16861;52.294;7.760;2023-07-24T09:09:15;98531.06;;;22.00;72.57
30021;BME280;16861;52.294;7.760;2023-07-24T09:11:49;98528.06;;;22.10;73.73
30021;BME280;16861;52.294;7.760;2023-07-24T09:14:21;98534.75;;;22.21;73.29
30021;BME280;16861;52.294;7.760;2023-07-24T09:16:48;98532.38;;;22.33;73.78
30021;BME280;16861;52.294;7.760;2023-07-24T09:19:18;98531.38;;;22.41;72.09
30021;BME280;16861;52.294;7.760;2023-07-24T09:21:52;98531.88;;;22.51;71.87
30021;BME280;16861;52.294;7.760;2023-07-24T09:24:18;98535.88;;;22.55;71.20
30021;BME280;16861;52.294;7.760;2023-07-24T09:26:52;98542.19;;;22.54;70.16
30021;BME280;16861;52.294;7.760;2023-07-24T09:29:30;98537.25;;;22.51;69.35
30021;BME280;16861;52.294;7.760;2023-07-24T09:31:57;98529.59;;;22.48;69.57
30021;BME280;16861;52.294;7.760;2023-07-24T09:34:24;98532.41;;;22.39;69.04
30021;BME280;16861;52.294;7.760;2023-07-24T09:36:52;98535.44;;;22.30;69.67
30021;BME280;16861;52.294;7.760;2023-07-24T09:39:25;98534.94;;;22.19;70.04
30021;BME280;16861;52.294;7.760;2023-07-24T09:42:02;98543.78;;;22.13;69.46
30021;BME280;16861;52.294;7.760;2023-07-24T09:44:31;98542.75;;;22.14;70.67
30021;BME280;16861;52.294;7.760;2023-07-24T09:46:58;98546.44;;;22.13;70.56
30021;BME280;16861;52.294;7.760;2023-07-24T09:49:44;98534.88;;;22.12;70.25
30021;BME280;16861;52.294;7.760;2023-07-24T09:52:12;98528.69;;;22.12;70.54
30021;BME280;16861;52.294;7.760;2023-07-24T09:54:55;98522.06;;;22.08;69.46
30021;BME280;16861;52.294;7.760;2023-07-24T09:57:23;98527.28;;;22.16;71.17
30021;BME280;16861;52.294;7.760;2023-07-24T09:59:53;98521.97;;;22.23;71.88
30021;BME280;16861;52.294;7.760;2023-07-24T10:02:21;98520.00;;;22.32;72.06
30021;BME280;16861;52.294;7.760;2023-07-24T10:04:49;98523.16;;;22.42;71.46
30021;BME280;16861;52.294;7.760;2023-07-24T10:07:16;98514.97;;;22.50;70.27
30021;BME280;16861;52.294;7.760;2023-07-24T10:09:43;98510.69;;;22.56;69.52
30021;BME280;16861;52.294;7.760;2023-07-24T10:12:10;98505.75;;;22.60;69.06
30021;BME280;16861;52.294;7.760;2023-07-24T10:14:37;98503.53;;;22.63;69.53
30021;BME280;16861;52.294;7.760;2023-07-24T10:17:04;98511.81;;;22.69;69.58
30021;BME280;16861;52.294;7.760;2023-07-24T10:19:42;98512.03;;;22.74;68.29
30021;BME280;16861;52.294;7.760;2023-07-24T10:22:18;98510.25;;;22.88;68.58
30021;BME280;16861;52.294;7.760;2023-07-24T10:24:46;98511.78;;;23.04;69.96
30021;BME280;16861;52.294;7.760;2023-07-24T10:27:13;98507.06;;;23.20;70.20
30021;BME280;16861;52.294;7.760;2023-07-24T10:29:39;98513.34;;;23.34;69.04
30021;BME280;16861;52.294;7.760;2023-07-24T10:32:26;98509.22;;;23.38;67.76
30021;BME280;16861;52.294;7.760;2023-07-24T10:35:06;98509.06;;;23.46;65.75
30021;BME280;16861;52.294;7.760;2023-07-24T10:37:38;98501.00;;;23.53;67.45
30021;BME280;16861;52.294;7.760;2023-07-24T10:40:05;98516.09;;;23.61;67.97
30021;BME280;16861;52.294;7.760;2023-07-24T10:42:31;98509.53;;;23.70;67.12
30021;BME280;16861;52.294;7.760;2023-07-24T10:45:04;98494.22;;;23.77;65.65
30021;BME280;16861;52.294;7.760;2023-07-24T10:47:32;98488.25;;;23.89;67.39
30021;BME280;16861;52.294;7.760;2023-07-24T10:49:58;98482.03;;;24.02;66.94
30021;BME280;16861;52.294;7.760;2023-07-24T10:52:29;98484.75;;;24.15;65.27
30021;BME280;16861;52.294;7.760;2023-07-24T10:54:55;98480.59;;;24.26;64.81
30021;BME280;16861;52.294;7.760;2023-07-24T10:57:29;98482.47;;;24.32;63.97
30021;BME280;16861;52.294;7.760;2023-07-24T10:59:56;98488.25;;;24.43;64.52
30021;BME280;16861;52.294;7.760;2023-07-24T11:02:23;98501.28;;;24.46;63.71
30021;BME280;16861;52.294;7.760;2023-07-24T11:04:49;98495.91;;;24.46;63.29
30021;BME280;16861;52.294;7.760;2023-07-24T11:07:16;98490.94;;;24.43;62.50
30021;BME280;16861;52.294;7.760;2023-07-24T11:09:43;98493.63;;;24.36;62.32
30021;BME280;16861;52.294;7.760;2023-07-24T11:12:14;98490.34;;;24.27;61.43
30021;BME280;16861;52.294;7.760;2023-07-24T11:14:51;98500.69;;;24.17;61.24
30021;BME280;16861;52.294;7.760;2023-07-24T11:17:18;98499.03;;;24.16;62.67
30021;BME280;16861;52.294;7.760;2023-07-24T11:19:44;98493.47;;;24.11;61.92
30021;BME280;16861;52.294;7.760;2023-07-24T11:22:11;98489.69;;;24.05;61.88
30021;BME280;16861;52.294;7.760;2023-07-24T11:24:47;98492.38;;;23.98;61.26
30021;BME280;16861;52.294;7.760;2023-07-24T11:27:17;98494.03;;;23.99;61.54
30021;BME280;16861;52.294;7.760;2023-07-24T11:29:48;98482.88;;;24.02;62.73
30021;BME280;16861;52.294;7.760;2023-07-24T11:32:19;98487.88;;;24.19;65.33
30021;BME280;16861;52.294;7.760;2023-07-24T11:34:48;98472.94;;;24.50;66.60
30021;BME280;16861;52.294;7.760;2023-07-24T11:37:15;98474.03;;;24.95;68.20
30021;BME280;16861;52.294;7.760;2023-07-24T11:39:42;98464.66;;;25.50;68.01
30021;BME280;16861;52.294;7.760;2023-07-24T11:42:08;98462.34;;;26.11;67.15
30021;BME280;16861;52.294;7.760;2023-07-24T11:44:35;98462.13;;;26.76;65.86
30021;BME280;16861;52.294;7.760;2023-07-24T11:47:05;98452.81;;;27.40;63.55
30021;BME280;16861;52.294;7.760;2023-07-24T11:49:32;98449.16;;;28.01;61.20
30021;BME280;16861;52.294;7.760;2023-07-24T11:52:00;98458.22;;;28.54;60.84
30021;BME280;16861;52.294;7.760;2023-07-24T11:54:27;98458.03;;;28.97;58.05
30021;BME280;16861;52.294;7.760;2023-07-24T11:56:53;98458.28;;;29.24;56.17
30021;BME280;16861;52.294;7.760;2023-07-24T11:59:20;98454.19;;;29.39;53.92
30021;BME280;16861;52.294;7.760;2023-07-24T12:01:47;98456.69;;;29.41;52.19
30021;BME280;16861;52.294;7.760;2023-07-24T12:04:17;98459.44;;;29.29;51.50
30021;BME280;16861;52.294;7.760;2023-07-24T12:06:44;98463.31;;;29.04;51.00
30021;BME280;16861;52.294;7.760;2023-07-24T12:09:11;98462.41;;;28.74;50.34
30021;BME280;16861;52.294;7.760;2023-07-24T12:11:43;98468.38;;;28.35;49.34
30021;BME280;16861;52.294;7.760;2023-07-24T12:14:13;98453.16;;;27.98;49.55
30021;BME280;16861;52.294;7.760;2023-07-24T12:16:40;98462.47;;;27.60;50.83
30021;BME280;16861;52.294;7.760;2023-07-24T12:19:07;98455.53;;;27.21;51.10
30021;BME280;16861;52.294;7.760;2023-07-24T12:21:33;98448.06;;;26.86;51.62
30021;BME280;16861;52.294;7.760;2023-07-24T12:24:00;98455.06;;;26.56;51.78
30021;BME280;16861;52.294;7.760;2023-07-24T12:26:26;98451.81;;;26.28;52.08
30021;BME280;16861;52.294;7.760;2023-07-24T12:28:54;98451.84;;;26.03;52.39
30021;BME280;16861;52.294;7.760;2023-07-24T12:31:21;98469.44;;;25.80;52.90
30021;BME280;16861;52.294;7.760;2023-07-24T12:33:48;98470.84;;;25.57;53.50
30021;BME280;16861;52.294;7.760;2023-07-24T12:36:14;98459.34;;;25.36;53.56
30021;BME280;16861;52.294;7.760;2023-07-24T12:38:41;98476.22;;;25.18;53.91
30021;BME280;16861;52.294;7.760;2023-07-24T12:41:07;98475.06;;;25.01;54.28
30021;BME280;16861;52.294;7.760;2023-07-24T12:43:34;98469.13;;;24.85;54.59
30021;BME280;16861;52.294;7.760;2023-07-24T12:46:00;98463.34;;;24.68;54.74
30021;BME280;16861;52.294;7.760;2023-07-24T12:48:26;98460.06;;;24.52;54.98
30021;BME280;16861;52.294;7.760;2023-07-24T12:50:53;98454.13;;;24.37;55.22
30021;BME280;16861;52.294;7.760;2023-07-24T12:53:20;98469.25;;;24.24;55.57
30021;BME280;16861;52.294;7.760;2023-07-24T12:55:51;98456.44;;;24.13;55.93
30021;BME280;16861;52.294;7.760;2023-07-24T12:58:18;98453.31;;;24.02;55.63
30021;BME280;16861;52.294;7.760;2023-07-24T13:00:44;98455.59;;;23.92;55.91
30021;BME280;16861;52.294;7.760;2023-07-24T13:03:11;98465.50;;;23.85;55.72
30021;BME280;16861;52.294;7.760;2023-07-24T13:05:37;98448.75;;;23.76;55.71
30021;BME280;16861;52.294;7.760;2023-07-24T13:08:04;98446.28;;;23.67;55.93
30021;BME280;16861;52.294;7.760;2023-07-24T13:10:31;98446.50;;;23.59;56.12
30021;BME280;16861;52.294;7.760;2023-07-24T13:12:58;98463.22;;;23.54;56.30